Modesto City Co-Harry Sham Field
KMOD : now visible

Airfield :











YOU CAN JOIN US ON...

 
LOGIN :

Register | Disclaimer

   EN    FR    IT 

 









Legend :    VFR   Marginal VFR   IFR   Intensive IFR   Very Intensive IFR
Visi :
Ceiling :
>= 8 km
>= 3000ft
5 to 8 km
1000 to 3000 ft
1500m to 5 km
500 to 1000 ft
800 to 1500m
200 to 500 ft
< 800m
< 200 ft
Symbols :   Thunderstorms  Fog  Heavy snow  Heavy precipitations  Wind > 20 kt






- Airport Elevation : 97 ft
- IATA code : MOD


KMOD - Modesto City Co-Harry Sham Field

CURRENT METAR :
  • 080753Z AUTO 14007KT 10SM CLR 13/11 A2998 RMK AO2 SLP151 T01330106 401890128

EXPIRED METARs :
  • 080653Z AUTO 13004KT 10SM CLR 13/11 A2998 RMK AO2 SLP152 T01330111
  • 080553Z AUTO 13005KT 10SM BKN038 OVC050 14/11 A2997 RMK AO2 RAE00 SLP149 P0000 60009 T01390111 10183 20139 51017

TAF KMOD
Valid from the 08 at 06:00 until the 09 at 06:00 UTC


080520Z 0806/0906 15008KT P6SM -RA FEW040 BKN070 OVC080
TEMPO 0808/0812 5SM SHRA BR BKN020
FM081200 14006KT 5SM BR OVC025
FM081900 15005KT P6SM BKN050



MET'MAP, your aeronautical weather chart ! - Copyright ORBIFLY December 2007 - Disclaimer

ORBIFLY MET'MAP TEAM :

Programming & Development : Alexandra Zaïnal
Concept & original design : Baudouin d'Aumeries
Assistance for programming : Marc-Olivier Méhu
Technical & hardware support : Manuel Goepfert

Contact : metmap@orbifly.com




SOURCES & CREDITS :

   NOAA       Earth
Advisory